createdAt,value
2019-04-26T00:02:31.121Z,9.20
2019-04-26T00:05:19.121Z,9.20
2019-04-26T00:08:05.272Z,9.20
2019-04-26T00:11:01.876Z,9.20
2019-04-26T00:14:12.882Z,9.20
2019-04-26T00:17:06.269Z,9.20
2019-04-26T00:19:52.416Z,9.20
2019-04-26T00:22:38.679Z,9.20
2019-04-26T00:25:25.171Z,9.20
2019-04-26T00:28:11.757Z,9.20
2019-04-26T00:30:59.100Z,9.20
2019-04-26T00:33:45.319Z,9.20
2019-04-26T00:36:31.353Z,9.20
2019-04-26T00:39:54.897Z,9.20
2019-04-26T00:43:00.361Z,9.20
2019-04-26T00:46:04.794Z,9.10
2019-04-26T00:49:10.394Z,9.10
2019-04-26T00:51:57.106Z,9.00
2019-04-26T00:54:43.985Z,8.90
2019-04-26T00:57:31.992Z,8.90
2019-04-26T01:00:19.549Z,8.80
2019-04-26T01:03:05.707Z,8.80
2019-04-26T01:05:59.784Z,8.70
2019-04-26T01:08:39.508Z,8.70
2019-04-26T01:11:26.044Z,8.60
2019-04-26T01:14:12.196Z,8.60
2019-04-26T01:16:58.688Z,8.60
2019-04-26T01:19:46.999Z,8.50
2019-04-26T01:22:37.513Z,8.50
2019-04-26T01:29:55.757Z,8.50
2019-04-26T01:32:53.179Z,8.50
2019-04-26T01:35:51.917Z,8.50
2019-04-26T01:39:04.722Z,8.50
2019-04-26T01:42:15.400Z,8.40
2019-04-26T01:45:25.741Z,8.50
2019-04-26T01:48:45.928Z,8.40
2019-04-26T01:51:48.248Z,8.40
2019-04-26T01:54:40.696Z,8.30
2019-04-26T01:57:46.191Z,8.30
2019-04-26T02:00:54.749Z,8.20
2019-04-26T02:03:40.995Z,8.20
2019-04-26T02:06:32.009Z,8.10
2019-04-26T02:09:16.143Z,8.10
2019-04-26T02:12:02.253Z,8.00
2019-04-26T02:14:48.576Z,8.00
2019-04-26T02:17:34.537Z,8.00
2019-04-26T02:21:02.988Z,7.90
2019-04-26T02:24:14.280Z,7.90
2019-04-26T02:27:40.072Z,7.90
2019-04-26T02:30:37.444Z,7.90
2019-04-26T02:33:31.334Z,7.90
2019-04-26T02:36:56.389Z,7.90
2019-04-26T02:39:33.144Z,7.90
2019-04-26T02:42:26.566Z,7.90
2019-04-26T02:46:01.588Z,7.80
2019-04-26T02:49:16.262Z,7.80
2019-04-26T02:52:19.039Z,7.90
2019-04-26T02:55:14.335Z,7.90
2019-04-26T02:58:00.671Z,8.00
2019-04-26T03:00:47.872Z,8.00
2019-04-26T03:03:35.770Z,8.00
2019-04-26T03:06:23.159Z,8.10
2019-04-26T03:09:11.280Z,8.10
2019-04-26T03:12:03.282Z,8.10
2019-04-26T03:15:16.747Z,8.20
2019-04-26T03:18:29.054Z,8.20
2019-04-26T03:21:21.684Z,8.30
2019-04-26T03:24:21.109Z,8.30
2019-04-26T03:27:29.484Z,8.40
2019-04-26T03:30:44.527Z,8.40
2019-04-26T03:33:56.546Z,8.40
2019-04-26T03:37:40.483Z,8.50
2019-04-26T03:40:45.977Z,8.50
2019-04-26T03:43:44.710Z,8.50
2019-04-26T03:46:54.680Z,8.60
2019-04-26T03:50:15.063Z,8.60
2019-04-26T03:53:19.183Z,8.70
2019-04-26T03:56:40.310Z,8.80
2019-04-26T03:59:55.080Z,8.90
2019-04-26T04:03:46.116Z,9.00
2019-04-26T04:06:52.652Z,9.10
2019-04-26T04:09:24.685Z,9.30
2019-04-26T04:12:30.674Z,9.40
2019-04-26T04:15:26.281Z,9.50
2019-04-26T04:18:20.852Z,9.70
2019-04-26T04:21:40.663Z,9.80
2019-04-26T04:24:46.887Z,10.00
2019-04-26T04:27:40.226Z,10.20
2019-04-26T04:31:01.628Z,10.40
2019-04-26T04:34:05.880Z,10.60
2019-04-26T04:36:55.539Z,10.80
2019-04-26T04:40:22.674Z,10.90
2019-04-26T04:43:25.899Z,11.10
2019-04-26T04:46:38.045Z,11.20
2019-04-26T04:49:42.627Z,11.30
2019-04-26T04:52:52.981Z,11.40
2019-04-26T04:55:59.089Z,11.50
2019-04-26T04:58:52.482Z,11.50
2019-04-26T05:02:40.051Z,11.60
2019-04-26T05:06:07.559Z,11.60
2019-04-26T05:09:28.913Z,11.50
2019-04-26T05:12:54.362Z,11.50
2019-04-26T05:16:26.320Z,11.50
2019-04-26T05:19:41.224Z,11.50
2019-04-26T05:22:56.068Z,11.40
2019-04-26T05:26:45.991Z,11.40
2019-04-26T05:30:27.620Z,11.30
2019-04-26T05:33:25.341Z,11.60
2019-04-26T05:36:24.628Z,12.40
2019-04-26T05:39:21.285Z,12.70
2019-04-26T05:43:02.654Z,13.10
2019-04-26T05:46:22.282Z,13.40
2019-04-26T05:49:55.849Z,13.30
2019-04-26T05:53:12.547Z,13.50
2019-04-26T05:56:43.659Z,14.00
2019-04-26T06:00:24.768Z,15.00
2019-04-26T06:03:34.236Z,15.90
2019-04-26T06:06:36.857Z,16.40
2019-04-26T06:09:58.929Z,16.60
2019-04-26T06:13:28.075Z,16.80
2019-04-26T06:16:31.543Z,17.00
2019-04-26T10:00:33.474Z,26.20
2019-04-26T10:03:19.755Z,26.10
2019-04-26T10:06:08.226Z,26.40
2019-04-26T10:08:54.133Z,26.40
2019-04-26T10:11:45.995Z,26.50
2019-04-26T10:14:51.204Z,26.40
2019-04-26T10:17:37.404Z,26.00
2019-04-26T10:20:23.445Z,25.80
2019-04-26T10:23:09.664Z,26.30
2019-04-26T10:25:55.692Z,26.90
2019-04-26T10:28:41.600Z,26.90
2019-04-26T10:31:27.877Z,27.20
2019-04-26T10:34:14.243Z,27.70
2019-04-26T10:37:01.495Z,28.50
2019-04-26T10:39:48.456Z,28.60
2019-04-26T10:42:34.841Z,29.30
2019-04-26T10:45:22.116Z,29.80
2019-04-26T10:48:09.504Z,30.20
2019-04-26T10:50:56.382Z,30.50
2019-04-26T10:53:52.117Z,30.90
2019-04-26T10:56:42.652Z,30.60
2019-04-26T10:59:51.074Z,30.90
2019-04-26T11:02:37.195Z,30.90
2019-04-26T11:05:23.752Z,31.00
2019-04-26T11:08:09.583Z,30.80
2019-04-26T11:10:55.697Z,30.80
2019-04-26T11:13:42.083Z,30.00
2019-04-26T11:16:28.379Z,29.20
2019-04-26T11:19:14.796Z,28.90
2019-04-26T11:22:00.720Z,28.70
2019-04-26T11:24:50.184Z,29.20
2019-04-26T11:27:34.729Z,29.90
2019-04-26T11:30:21.799Z,30.90
2019-04-26T11:33:11.171Z,31.50
2019-04-26T11:35:56.019Z,31.40
2019-04-26T11:38:42.378Z,31.50
2019-04-26T11:41:28.695Z,31.70
2019-04-26T11:44:15.215Z,31.70
2019-04-26T11:47:03.294Z,30.40
2019-04-26T11:49:50.083Z,30.50
2019-04-26T11:52:37.431Z,30.40
2019-04-26T11:55:29.677Z,30.60
2019-04-26T11:58:17.951Z,30.80
2019-04-26T13:40:08.962Z,27.70
2019-04-26T13:42:55.499Z,27.60
2019-04-26T13:45:59.780Z,27.00
2019-04-26T13:48:51.398Z,26.30
2019-04-26T13:51:37.907Z,25.90
2019-04-26T13:54:26.169Z,25.70
2019-04-26T13:57:12.688Z,25.80
2019-04-26T14:00:02.527Z,25.90
2019-04-26T14:02:46.975Z,25.60
2019-04-26T14:05:32.779Z,25.20
2019-04-26T14:08:18.676Z,25.00
2019-04-26T14:11:05.081Z,24.40
2019-04-26T14:13:51.467Z,24.10
2019-04-26T14:16:38.103Z,23.70
2019-04-26T14:19:24.180Z,23.50
2019-04-26T14:22:11.496Z,23.70
2019-04-26T14:25:05.027Z,24.80
2019-04-26T14:27:51.931Z,24.60
2019-04-26T14:30:41.805Z,23.80
2019-04-26T14:33:27.131Z,23.30
2019-04-26T14:36:18.092Z,22.90
2019-04-26T14:39:06.094Z,22.90
2019-04-26T14:41:52.774Z,22.80
2019-04-26T14:44:49.240Z,22.70
2019-04-26T14:47:30.545Z,22.80
2019-04-26T14:50:15.901Z,23.00
2019-04-26T14:53:03.615Z,23.10
2019-04-26T14:55:51.300Z,23.80
2019-04-26T14:58:37.679Z,24.50
2019-04-26T15:01:42.460Z,24.70
2019-04-26T15:04:54.320Z,25.30
2019-04-26T15:07:49.395Z,25.40
2019-04-26T15:10:43.844Z,24.80
2019-04-26T15:13:23.576Z,25.00
2019-04-26T15:16:11.813Z,26.10
2019-04-26T15:18:57.810Z,26.20
2019-04-26T15:21:43.735Z,25.40
2019-04-26T15:24:30.132Z,24.90
2019-04-26T15:27:17.759Z,24.80
2019-04-26T15:30:05.012Z,24.90
2019-04-26T15:32:52.785Z,24.40
2019-04-26T15:35:38.984Z,24.20
2019-04-26T15:38:25.432Z,24.00
2019-04-26T15:41:34.204Z,23.60
2019-04-26T15:44:45.867Z,23.20
2019-04-26T15:47:50.270Z,23.20
2019-04-26T15:50:48.423Z,23.20
2019-04-26T15:53:29.943Z,22.90
2019-04-26T15:56:17.695Z,23.30
2019-04-26T15:59:03.596Z,23.60
2019-04-26T16:01:50.219Z,23.60
2019-04-26T16:04:36.371Z,23.90
2019-04-26T16:07:27.796Z,24.00
2019-04-26T16:10:12.157Z,24.00
2019-04-26T16:13:00.065Z,23.10
2019-04-26T16:15:48.779Z,22.70
2019-04-26T16:18:34.492Z,22.70
2019-04-26T16:21:22.044Z,22.80
2019-04-26T16:24:08.775Z,22.50
2019-04-26T16:26:56.255Z,22.70
2019-04-26T16:30:10.687Z,22.90
2019-04-26T16:33:19.573Z,22.80
2019-04-26T16:36:06.362Z,22.40
2019-04-26T16:38:56.445Z,22.10
2019-04-26T16:41:42.141Z,21.70
2019-04-26T16:47:16.413Z,21.50
2019-04-26T16:50:03.700Z,21.00
2019-04-26T16:52:50.490Z,20.70
2019-04-26T16:55:47.993Z,20.40
2019-04-26T16:58:24.871Z,20.00
2019-04-26T17:01:14.625Z,19.40
2019-04-26T17:03:59.600Z,19.00
2019-04-26T17:06:46.469Z,18.60
2019-04-26T17:09:50.249Z,21.40
2019-04-26T17:09:54.501Z,18.10
2019-04-26T17:12:22.566Z,17.60
2019-04-26T17:15:08.751Z,17.20
2019-04-26T17:17:54.653Z,16.90
2019-04-26T17:20:44.943Z,16.60
2019-04-26T17:23:47.038Z,16.30
2019-04-26T17:26:42.670Z,16.00
2019-04-26T17:29:28.908Z,15.70
2019-04-26T17:32:17.266Z,15.40
2019-04-26T17:35:07.338Z,15.10
2019-04-26T17:37:53.092Z,14.80
2019-04-26T17:40:41.043Z,14.50
2019-04-26T17:43:27.303Z,14.30
2019-04-26T17:46:14.615Z,14.10
2019-04-26T17:49:01.553Z,13.90
2019-04-26T17:51:51.754Z,13.70
2019-04-26T17:54:46.143Z,13.50
2019-04-26T17:57:33.756Z,13.30
2019-04-26T18:00:15.673Z,13.20
2019-04-26T18:03:01.691Z,13.10
2019-04-26T18:05:56.536Z,12.90
2019-04-26T18:08:45.241Z,12.80
2019-04-26T18:11:25.006Z,12.60
2019-04-26T18:14:21.258Z,12.50
2019-04-26T18:17:09.228Z,12.30
2019-04-26T18:20:37.462Z,12.20
2019-04-26T18:23:23.536Z,12.00
2019-04-26T18:26:09.751Z,11.80
2019-04-26T18:28:56.111Z,11.70
2019-04-26T18:31:43.848Z,11.60
2019-04-26T18:34:30.511Z,11.50
2019-04-26T18:37:18.371Z,11.30
2019-04-26T18:40:04.871Z,11.20
2019-04-26T18:42:50.879Z,11.10
2019-04-26T18:45:37.424Z,11.00
2019-04-26T18:48:23.763Z,10.90
2019-04-26T18:51:11.090Z,10.80
2019-04-26T18:54:17.864Z,10.70
2019-04-26T18:57:04.359Z,10.60
2019-04-26T18:59:51.685Z,10.50
2019-04-26T19:02:38.512Z,10.40
2019-04-26T19:05:29.843Z,10.30
2019-04-26T19:08:13.156Z,10.20
2019-04-26T19:11:03.039Z,10.10
2019-04-26T19:14:15.304Z,10.00
2019-04-26T19:17:19.935Z,9.90
2019-04-26T19:20:16.402Z,9.80
2019-04-26T19:23:03.740Z,9.70
2019-04-26T19:25:49.650Z,9.70
2019-04-26T19:28:39.460Z,9.60
2019-04-26T19:31:27.009Z,9.50
2019-04-26T19:34:11.712Z,9.50
2019-04-26T19:36:59.829Z,9.40
2019-04-26T19:39:46.052Z,9.40
2019-04-26T19:42:32.533Z,9.30
2019-04-26T19:45:28.187Z,9.20
2019-04-26T19:48:23.650Z,9.20
2019-04-26T19:51:35.901Z,9.10
2019-04-26T19:54:35.593Z,9.00
2019-04-26T19:57:21.679Z,8.90
2019-04-26T20:00:10.890Z,8.90
2019-04-26T20:02:57.273Z,8.90
2019-04-26T20:05:44.311Z,8.80
2019-04-26T20:08:35.275Z,8.80
2019-04-26T20:11:19.960Z,8.70
2019-04-26T20:14:06.439Z,8.70
2019-04-26T20:16:52.692Z,8.50
2019-04-26T20:19:38.680Z,8.50
2019-04-26T20:22:28.261Z,8.50
2019-04-26T20:25:12.808Z,8.40
2019-04-26T20:28:00.012Z,8.40
2019-04-26T20:30:57.865Z,8.40
2019-04-26T20:33:43.393Z,8.40
2019-04-26T20:36:33.757Z,8.30
2019-04-26T20:39:21.020Z,8.30
2019-04-26T20:42:05.865Z,8.20
2019-04-26T20:44:53.794Z,8.20
2019-04-26T20:47:41.622Z,8.20
2019-04-26T20:50:28.467Z,8.20
2019-04-26T20:53:15.961Z,8.10
2019-04-26T20:56:03.782Z,8.10
2019-04-26T20:58:49.832Z,8.10
2019-04-26T21:01:36.249Z,8.00
2019-04-26T21:04:35.011Z,8.00
2019-04-26T21:07:11.434Z,8.00
2019-04-26T21:09:58.460Z,7.90
2019-04-26T21:12:47.499Z,7.90
2019-04-26T21:15:35.769Z,7.80
2019-04-26T21:18:21.178Z,7.80
2019-04-26T21:21:10.543Z,7.70
2019-04-26T21:23:56.569Z,7.70
2019-04-26T21:27:08.331Z,7.70
2019-04-26T21:30:29.654Z,7.60
2019-04-26T21:33:17.899Z,7.60
2019-04-26T21:36:23.523Z,7.50
2019-04-26T21:39:27.694Z,7.50
2019-04-26T21:42:17.155Z,7.40
2019-04-26T21:45:03.564Z,7.50
2019-04-26T21:47:49.930Z,7.40
2019-04-26T21:50:38.962Z,7.40
2019-04-26T21:53:24.346Z,7.40
2019-04-26T21:56:11.508Z,7.40
2019-04-26T21:58:58.395Z,7.40
2019-04-26T22:01:48.241Z,7.30
2019-04-26T22:04:34.132Z,7.40
2019-04-26T22:07:20.575Z,7.30
2019-04-26T22:10:14.244Z,7.30
2019-04-26T22:13:01.440Z,7.30
2019-04-26T22:15:56.275Z,7.30
2019-04-26T22:19:05.096Z,7.30
2019-04-26T22:22:10.878Z,7.30
2019-04-26T22:24:57.742Z,7.30
2019-04-26T22:27:44.062Z,7.30
2019-04-26T22:30:30.374Z,7.20
2019-04-26T22:33:16.791Z,7.20
2019-04-26T22:36:03.975Z,7.20
2019-04-26T22:38:50.592Z,7.20
2019-04-26T22:41:36.612Z,7.20
2019-04-26T22:44:46.276Z,7.20
2019-04-26T22:47:41.032Z,7.20
2019-04-26T22:50:25.074Z,7.20
2019-04-26T22:53:12.025Z,7.20
2019-04-26T22:56:01.383Z,7.10
2019-04-26T22:58:46.054Z,7.10
2019-04-26T23:01:33.010Z,7.10
2019-04-26T23:04:23.665Z,7.10
2019-04-26T23:07:08.719Z,7.10
2019-04-26T23:09:55.505Z,7.10
2019-04-26T23:12:53.849Z,7.10
2019-04-26T23:15:51.943Z,7.10
2019-04-26T23:19:00.413Z,7.10
2019-04-26T23:21:52.880Z,7.10
2019-04-26T23:24:35.013Z,7.10
2019-04-26T23:27:22.139Z,7.10
2019-04-26T23:30:10.805Z,7.00
2019-04-26T23:32:57.224Z,7.00
2019-04-26T23:35:47.414Z,7.00
2019-04-26T23:38:34.609Z,6.90
2019-04-26T23:41:19.201Z,6.90
2019-04-26T23:44:06.727Z,6.90
2019-04-26T23:46:56.613Z,6.90
2019-04-26T23:49:40.843Z,6.90
2019-04-26T23:52:26.737Z,6.90
2019-04-26T23:55:13.565Z,6.90
2019-04-26T23:58:00.038Z,6.80
